Fountain Prairie, Arkansas
Current Conditions -  °F | °C
As of 2:55 AM on Wednesday 26 Nov 2014 (Local Time) from KBQP Reporting Station
Clear Clear  
Wind Chill: 35°   Ceiling: Unl
Heat Index: 38°   Visibility: 10mi
Dew Point: 31°   Wind: 5mph
Humidity: 74%   Direction: 170°S
Pressure: 30.18"   Gusts: NA
Location:  33.1762°N, 91.7595°W
Report Text: KBQP 260855Z AUTO 17004KT 10SM CLR 04/M01 A3018 RMK AO2 T00351007
Loading
Personal Weather Stations






























Interactive Weather Map New forecast layout! Learn more

10-Day Weather Forecast

Advertisements
Track Severe Weather on mobile